sensor_id;sensor_type;location;lat;lon;timestamp;temperature;humidity
13093;DHT22;6612;49.568;11.000;2022-10-31T00:00:25;14.40;68.30
13093;DHT22;6612;49.568;11.000;2022-10-31T00:02:52;14.40;68.20
13093;DHT22;6612;49.568;11.000;2022-10-31T00:05:19;14.40;68.20
13093;DHT22;6612;49.568;11.000;2022-10-31T00:07:46;14.40;68.20
13093;DHT22;6612;49.568;11.000;2022-10-31T00:10:13;14.40;68.20
13093;DHT22;6612;49.568;11.000;2022-10-31T00:12:40;14.40;68.10
13093;DHT22;6612;49.568;11.000;2022-10-31T00:15:09;14.40;68.10
13093;DHT22;6612;49.568;11.000;2022-10-31T00:17:36;14.40;68.20
13093;DHT22;6612;49.568;11.000;2022-10-31T00:20:03;14.40;68.10
13093;DHT22;6612;49.568;11.000;2022-10-31T00:22:30;14.30;68.00
13093;DHT22;6612;49.568;11.000;2022-10-31T00:24:57;14.30;67.90
13093;DHT22;6612;49.568;11.000;2022-10-31T00:27:24;14.30;68.00
13093;DHT22;6612;49.568;11.000;2022-10-31T00:29:51;14.30;68.00
13093;DHT22;6612;49.568;11.000;2022-10-31T00:32:19;14.30;68.00
13093;DHT22;6612;49.568;11.000;2022-10-31T00:34:46;14.20;67.90
13093;DHT22;6612;49.568;11.000;2022-10-31T00:37:13;14.20;67.90
13093;DHT22;6612;49.568;11.000;2022-10-31T00:39:40;14.20;67.90
13093;DHT22;6612;49.568;11.000;2022-10-31T00:42:07;14.20;67.90
13093;DHT22;6612;49.568;11.000;2022-10-31T00:44:34;14.20;67.90
13093;DHT22;6612;49.568;11.000;2022-10-31T00:47:01;14.10;67.80
13093;DHT22;6612;49.568;11.000;2022-10-31T00:49:29;14.10;67.80
13093;DHT22;6612;49.568;11.000;2022-10-31T00:51:56;14.10;67.80
13093;DHT22;6612;49.568;11.000;2022-10-31T00:54:23;14.10;67.80
13093;DHT22;6612;49.568;11.000;2022-10-31T00:56:50;14.00;67.70
13093;DHT22;6612;49.568;11.000;2022-10-31T00:59:17;14.00;67.70
13093;DHT22;6612;49.568;11.000;2022-10-31T01:01:44;14.00;67.70
13093;DHT22;6612;49.568;11.000;2022-10-31T01:04:11;14.00;67.70
13093;DHT22;6612;49.568;11.000;2022-10-31T01:06:40;13.90;67.60
13093;DHT22;6612;49.568;11.000;2022-10-31T01:09:07;13.90;67.70
13093;DHT22;6612;49.568;11.000;2022-10-31T01:11:34;13.90;67.70
13093;DHT22;6612;49.568;11.000;2022-10-31T01:14:01;13.90;67.70
13093;DHT22;6612;49.568;11.000;2022-10-31T01:16:29;13.90;67.80
13093;DHT22;6612;49.568;11.000;2022-10-31T01:18:56;13.80;67.90
13093;DHT22;6612;49.568;11.000;2022-10-31T01:21:24;13.80;68.00
13093;DHT22;6612;49.568;11.000;2022-10-31T01:23:54;13.80;68.10
13093;DHT22;6612;49.568;11.000;2022-10-31T01:26:24;13.80;68.30
13093;DHT22;6612;49.568;11.000;2022-10-31T01:28:52;13.80;68.30
13093;DHT22;6612;49.568;11.000;2022-10-31T01:31:22;13.90;68.60
13093;DHT22;6612;49.568;11.000;2022-10-31T01:33:50;13.90;68.70
13093;DHT22;6612;49.568;11.000;2022-10-31T01:36:19;13.90;68.80
13093;DHT22;6612;49.568;11.000;2022-10-31T01:38:47;13.90;69.00
13093;DHT22;6612;49.568;11.000;2022-10-31T01:41:19;13.90;69.00
13093;DHT22;6612;49.568;11.000;2022-10-31T01:43:50;13.90;69.00
13093;DHT22;6612;49.568;11.000;2022-10-31T01:46:20;13.90;69.00
13093;DHT22;6612;49.568;11.000;2022-10-31T01:48:48;14.00;69.20
13093;DHT22;6612;49.568;11.000;2022-10-31T01:51:18;14.00;69.20
13093;DHT22;6612;49.568;11.000;2022-10-31T01:53:48;14.00;69.30
13093;DHT22;6612;49.568;11.000;2022-10-31T01:56:18;14.00;69.20
13093;DHT22;6612;49.568;11.000;2022-10-31T01:58:46;14.00;69.20
13093;DHT22;6612;49.568;11.000;2022-10-31T02:01:14;14.00;69.10
13093;DHT22;6612;49.568;11.000;2022-10-31T02:03:43;14.10;69.30
13093;DHT22;6612;49.568;11.000;2022-10-31T02:06:16;14.10;69.20
13093;DHT22;6612;49.568;11.000;2022-10-31T02:08:46;14.10;69.30
13093;DHT22;6612;49.568;11.000;2022-10-31T02:11:13;14.10;69.10
13093;DHT22;6612;49.568;11.000;2022-10-31T02:13:42;14.10;69.10
13093;DHT22;6612;49.568;11.000;2022-10-31T02:16:09;14.10;69.20
13093;DHT22;6612;49.568;11.000;2022-10-31T02:18:37;14.10;69.20
13093;DHT22;6612;49.568;11.000;2022-10-31T02:21:11;14.10;69.30
13093;DHT22;6612;49.568;11.000;2022-10-31T02:24:15;14.10;69.50
13093;DHT22;6612;49.568;11.000;2022-10-31T02:27:02;14.10;69.80
13093;DHT22;6612;49.568;11.000;2022-10-31T02:35:40;14.10;69.10
13093;DHT22;6612;49.568;11.000;2022-10-31T02:38:15;14.00;68.90
13093;DHT22;6612;49.568;11.000;2022-10-31T02:40:53;14.00;68.70
13093;DHT22;6612;49.568;11.000;2022-10-31T02:43:27;13.90;68.40
13093;DHT22;6612;49.568;11.000;2022-10-31T02:46:00;13.90;68.30
13093;DHT22;6612;49.568;11.000;2022-10-31T02:48:33;13.90;68.10
13093;DHT22;6612;49.568;11.000;2022-10-31T02:51:03;13.80;68.10
13093;DHT22;6612;49.568;11.000;2022-10-31T02:53:32;13.70;68.00
13093;DHT22;6612;49.568;11.000;2022-10-31T02:56:02;13.70;68.20
13093;DHT22;6612;49.568;11.000;2022-10-31T02:58:34;13.70;68.20
13093;DHT22;6612;49.568;11.000;2022-10-31T03:01:38;13.70;68.40
13093;DHT22;6612;49.568;11.000;2022-10-31T03:04:21;13.60;68.70
13093;DHT22;6612;49.568;11.000;2022-10-31T03:06:54;13.60;68.50
13093;DHT22;6612;49.568;11.000;2022-10-31T03:09:28;13.60;68.50
13093;DHT22;6612;49.568;11.000;2022-10-31T03:12:10;13.50;68.50
13093;DHT22;6612;49.568;11.000;2022-10-31T03:14:43;13.50;68.70
13093;DHT22;6612;49.568;11.000;2022-10-31T03:17:14;13.50;68.60
13093;DHT22;6612;49.568;11.000;2022-10-31T03:19:46;13.50;68.80
13093;DHT22;6612;49.568;11.000;2022-10-31T03:22:17;13.50;68.90
13093;DHT22;6612;49.568;11.000;2022-10-31T03:24:46;13.50;68.90
13093;DHT22;6612;49.568;11.000;2022-10-31T03:27:17;13.50;68.80
13093;DHT22;6612;49.568;11.000;2022-10-31T03:29:46;13.50;68.80
13093;DHT22;6612;49.568;11.000;2022-10-31T03:32:19;13.50;68.70
13093;DHT22;6612;49.568;11.000;2022-10-31T03:34:48;13.50;68.80
13093;DHT22;6612;49.568;11.000;2022-10-31T03:37:18;13.50;68.70
13093;DHT22;6612;49.568;11.000;2022-10-31T03:39:48;13.50;68.60
13093;DHT22;6612;49.568;11.000;2022-10-31T03:42:17;13.50;69.40
13093;DHT22;6612;49.568;11.000;2022-10-31T03:44:48;13.40;68.50
13093;DHT22;6612;49.568;11.000;2022-10-31T03:47:17;13.40;68.50
13093;DHT22;6612;49.568;11.000;2022-10-31T03:49:44;13.40;68.30
13093;DHT22;6612;49.568;11.000;2022-10-31T03:52:19;13.40;68.30
13093;DHT22;6612;49.568;11.000;2022-10-31T03:54:53;13.40;68.30
13093;DHT22;6612;49.568;11.000;2022-10-31T03:57:25;13.30;68.10
13093;DHT22;6612;49.568;11.000;2022-10-31T03:59:57;13.30;68.10
13093;DHT22;6612;49.568;11.000;2022-10-31T04:02:30;13.30;68.10
13093;DHT22;6612;49.568;11.000;2022-10-31T04:04:59;13.20;68.10
13093;DHT22;6612;49.568;11.000;2022-10-31T04:07:31;13.20;68.10
13093;DHT22;6612;49.568;11.000;2022-10-31T04:10:02;13.20;68.30
13093;DHT22;6612;49.568;11.000;2022-10-31T04:12:32;13.20;68.30
13093;DHT22;6612;49.568;11.000;2022-10-31T04:15:03;13.10;68.20
13093;DHT22;6612;49.568;11.000;2022-10-31T04:17:35;13.10;68.20
13093;DHT22;6612;49.568;11.000;2022-10-31T04:20:03;13.10;68.30
13093;DHT22;6612;49.568;11.000;2022-10-31T04:22:31;13.10;68.30
13093;DHT22;6612;49.568;11.000;2022-10-31T04:24:58;13.10;68.40
13093;DHT22;6612;49.568;11.000;2022-10-31T04:27:25;13.10;68.50
13093;DHT22;6612;49.568;11.000;2022-10-31T04:29:52;13.10;68.60
13093;DHT22;6612;49.568;11.000;2022-10-31T04:32:19;13.10;68.80
13093;DHT22;6612;49.568;11.000;2022-10-31T04:34:46;13.10;68.80
13093;DHT22;6612;49.568;11.000;2022-10-31T04:37:13;13.10;68.80
13093;DHT22;6612;49.568;11.000;2022-10-31T04:39:42;13.00;68.70
13093;DHT22;6612;49.568;11.000;2022-10-31T04:42:09;13.10;69.00
13093;DHT22;6612;49.568;11.000;2022-10-31T04:44:35;13.10;69.00
13093;DHT22;6612;49.568;11.000;2022-10-31T04:47:03;13.10;69.20
13093;DHT22;6612;49.568;11.000;2022-10-31T04:49:30;13.00;69.20
13093;DHT22;6612;49.568;11.000;2022-10-31T04:51:57;13.10;69.30
13093;DHT22;6612;49.568;11.000;2022-10-31T04:54:23;13.10;69.20
13093;DHT22;6612;49.568;11.000;2022-10-31T04:56:52;13.10;69.10
13093;DHT22;6612;49.568;11.000;2022-10-31T04:59:19;13.10;69.10
13093;DHT22;6612;49.568;11.000;2022-10-31T05:01:46;13.10;69.00
13093;DHT22;6612;49.568;11.000;2022-10-31T05:04:13;13.10;69.00
13093;DHT22;6612;49.568;11.000;2022-10-31T05:06:40;13.10;69.10
13093;DHT22;6612;49.568;11.000;2022-10-31T05:09:07;13.10;69.10
13093;DHT22;6612;49.568;11.000;2022-10-31T05:11:34;13.10;69.10
13093;DHT22;6612;49.568;11.000;2022-10-31T05:14:02;13.10;70.00
13093;DHT22;6612;49.568;11.000;2022-10-31T05:16:29;13.10;69.20
13093;DHT22;6612;49.568;11.000;2022-10-31T05:18:56;13.10;69.10
13093;DHT22;6612;49.568;11.000;2022-10-31T05:21:23;13.10;69.10
13093;DHT22;6612;49.568;11.000;2022-10-31T05:23:50;13.10;69.10
13093;DHT22;6612;49.568;11.000;2022-10-31T05:26:17;13.10;69.00
13093;DHT22;6612;49.568;11.000;2022-10-31T05:28:44;13.10;69.00
13093;DHT22;6612;49.568;11.000;2022-10-31T05:31:13;13.10;69.00
13093;DHT22;6612;49.568;11.000;2022-10-31T05:33:40;13.10;69.10
13093;DHT22;6612;49.568;11.000;2022-10-31T05:36:07;13.10;69.10
13093;DHT22;6612;49.568;11.000;2022-10-31T05:38:34;13.10;69.10
13093;DHT22;6612;49.568;11.000;2022-10-31T05:41:01;13.10;69.20
13093;DHT22;6612;49.568;11.000;2022-10-31T05:43:28;13.10;69.20
13093;DHT22;6612;49.568;11.000;2022-10-31T05:45:56;13.10;69.20
13093;DHT22;6612;49.568;11.000;2022-10-31T05:48:24;13.10;69.20
13093;DHT22;6612;49.568;11.000;2022-10-31T05:50:51;13.10;69.20
13093;DHT22;6612;49.568;11.000;2022-10-31T05:53:18;13.10;69.30
13093;DHT22;6612;49.568;11.000;2022-10-31T05:55:46;13.10;69.40
13093;DHT22;6612;49.568;11.000;2022-10-31T05:58:13;13.10;70.40
13093;DHT22;6612;49.568;11.000;2022-10-31T06:00:40;13.10;69.70
13093;DHT22;6612;49.568;11.000;2022-10-31T06:03:08;13.20;69.90
13093;DHT22;6612;49.568;11.000;2022-10-31T06:05:37;13.20;70.00
13093;DHT22;6612;49.568;11.000;2022-10-31T06:08:04;13.20;69.90
13093;DHT22;6612;49.568;11.000;2022-10-31T06:10:32;13.20;69.80
13093;DHT22;6612;49.568;11.000;2022-10-31T06:12:59;13.20;69.70
13093;DHT22;6612;49.568;11.000;2022-10-31T06:15:26;13.20;69.60
13093;DHT22;6612;49.568;11.000;2022-10-31T06:18:00;13.20;69.50
13093;DHT22;6612;49.568;11.000;2022-10-31T06:20:27;13.20;69.80
13093;DHT22;6612;49.568;11.000;2022-10-31T06:22:56;13.20;69.60
13093;DHT22;6612;49.568;11.000;2022-10-31T06:25:23;13.20;69.70
13093;DHT22;6612;49.568;11.000;2022-10-31T06:27:50;13.20;69.60
13093;DHT22;6612;49.568;11.000;2022-10-31T06:30:17;13.20;69.60
13093;DHT22;6612;49.568;11.000;2022-10-31T06:32:44;13.20;69.70
13093;DHT22;6612;49.568;11.000;2022-10-31T06:35:12;13.20;69.70
13093;DHT22;6612;49.568;11.000;2022-10-31T06:37:39;13.20;69.80
13093;DHT22;6612;49.568;11.000;2022-10-31T06:40:08;13.20;69.90
13093;DHT22;6612;49.568;11.000;2022-10-31T06:42:35;13.20;70.10
13093;DHT22;6612;49.568;11.000;2022-10-31T06:45:03;13.20;70.80
13093;DHT22;6612;49.568;11.000;2022-10-31T06:47:30;13.30;70.10
13093;DHT22;6612;49.568;11.000;2022-10-31T06:49:57;13.30;70.20
13093;DHT22;6612;49.568;11.000;2022-10-31T06:52:24;13.30;70.20
13093;DHT22;6612;49.568;11.000;2022-10-31T06:54:51;13.40;70.60
13093;DHT22;6612;49.568;11.000;2022-10-31T06:57:19;13.40;70.90
13093;DHT22;6612;49.568;11.000;2022-10-31T06:59:46;13.50;71.10
13093;DHT22;6612;49.568;11.000;2022-10-31T07:02:13;13.50;71.10
13093;DHT22;6612;49.568;11.000;2022-10-31T07:04:40;13.60;71.10
13093;DHT22;6612;49.568;11.000;2022-10-31T07:07:07;13.70;71.10
13093;DHT22;6612;49.568;11.000;2022-10-31T07:09:34;13.70;71.10
13093;DHT22;6612;49.568;11.000;2022-10-31T07:12:01;13.80;71.30
13093;DHT22;6612;49.568;11.000;2022-10-31T07:14:29;13.90;71.40
13093;DHT22;6612;49.568;11.000;2022-10-31T07:16:56;13.90;71.40
13093;DHT22;6612;49.568;11.000;2022-10-31T07:19:23;14.00;71.40
13093;DHT22;6612;49.568;11.000;2022-10-31T07:21:50;14.00;71.30
13093;DHT22;6612;49.568;11.000;2022-10-31T07:24:17;14.10;71.20
13093;DHT22;6612;49.568;11.000;2022-10-31T07:26:45;14.20;71.20
13093;DHT22;6612;49.568;11.000;2022-10-31T07:29:12;14.20;71.20
13093;DHT22;6612;49.568;11.000;2022-10-31T07:31:41;14.30;71.20
13093;DHT22;6612;49.568;11.000;2022-10-31T07:34:09;14.40;71.70
13093;DHT22;6612;49.568;11.000;2022-10-31T07:36:36;14.40;72.10
13093;DHT22;6612;49.568;11.000;2022-10-31T07:39:04;14.50;72.50
13093;DHT22;6612;49.568;11.000;2022-10-31T07:41:31;14.60;72.80
13093;DHT22;6612;49.568;11.000;2022-10-31T07:43:58;14.70;73.20
13093;DHT22;6612;49.568;11.000;2022-10-31T07:46:25;14.80;73.00
13093;DHT22;6612;49.568;11.000;2022-10-31T07:48:53;14.90;73.00
13093;DHT22;6612;49.568;11.000;2022-10-31T07:51:20;15.00;73.00
13093;DHT22;6612;49.568;11.000;2022-10-31T07:53:49;15.10;72.90
13093;DHT22;6612;49.568;11.000;2022-10-31T07:56:16;15.20;72.80
13093;DHT22;6612;49.568;11.000;2022-10-31T07:58:43;15.30;72.70
13093;DHT22;6612;49.568;11.000;2022-10-31T08:01:10;15.40;72.70
13093;DHT22;6612;49.568;11.000;2022-10-31T08:03:37;15.50;72.70
13093;DHT22;6612;49.568;11.000;2022-10-31T08:06:05;15.60;72.50
13093;DHT22;6612;49.568;11.000;2022-10-31T08:08:32;15.60;72.20
13093;DHT22;6612;49.568;11.000;2022-10-31T08:10:59;15.70;72.20
13093;DHT22;6612;49.568;11.000;2022-10-31T08:13:26;15.80;72.40
13093;DHT22;6612;49.568;11.000;2022-10-31T08:15:53;15.90;72.60
13093;DHT22;6612;49.568;11.000;2022-10-31T08:18:21;16.00;72.70
13093;DHT22;6612;49.568;11.000;2022-10-31T08:20:49;16.10;72.60
13093;DHT22;6612;49.568;11.000;2022-10-31T08:23:17;16.10;72.60
13093;DHT22;6612;49.568;11.000;2022-10-31T08:25:44;16.20;72.50
13093;DHT22;6612;49.568;11.000;2022-10-31T08:28:14;16.30;72.60
13093;DHT22;6612;49.568;11.000;2022-10-31T08:30:41;16.40;72.50
13093;DHT22;6612;49.568;11.000;2022-10-31T08:33:10;16.50;72.50
13093;DHT22;6612;49.568;11.000;2022-10-31T08:35:37;16.60;72.20
13093;DHT22;6612;49.568;11.000;2022-10-31T08:38:05;16.70;72.30
13093;DHT22;6612;49.568;11.000;2022-10-31T08:40:35;16.70;72.30
13093;DHT22;6612;49.568;11.000;2022-10-31T08:43:03;16.80;72.40
13093;DHT22;6612;49.568;11.000;2022-10-31T08:45:32;16.90;72.60
13093;DHT22;6612;49.568;11.000;2022-10-31T08:48:00;17.00;72.70
13093;DHT22;6612;49.568;11.000;2022-10-31T08:50:28;17.10;72.60
13093;DHT22;6612;49.568;11.000;2022-10-31T08:53:00;17.20;72.60
13093;DHT22;6612;49.568;11.000;2022-10-31T08:55:27;17.30;72.40
13093;DHT22;6612;49.568;11.000;2022-10-31T08:57:56;17.40;72.40
13093;DHT22;6612;49.568;11.000;2022-10-31T09:00:23;17.50;72.30
13093;DHT22;6612;49.568;11.000;2022-10-31T09:02:55;17.60;72.30
13093;DHT22;6612;49.568;11.000;2022-10-31T09:05:23;17.70;72.00
13093;DHT22;6612;49.568;11.000;2022-10-31T09:07:52;17.70;72.20
13093;DHT22;6612;49.568;11.000;2022-10-31T09:10:22;17.80;72.20
13093;DHT22;6612;49.568;11.000;2022-10-31T09:12:56;17.90;72.20
13093;DHT22;6612;49.568;11.000;2022-10-31T09:15:23;18.00;72.00
13093;DHT22;6612;49.568;11.000;2022-10-31T09:17:50;18.10;72.20
13093;DHT22;6612;49.568;11.000;2022-10-31T09:20:18;18.20;71.80
13093;DHT22;6612;49.568;11.000;2022-10-31T09:22:45;18.20;71.50
13093;DHT22;6612;49.568;11.000;2022-10-31T09:25:12;18.40;71.20
13093;DHT22;6612;49.568;11.000;2022-10-31T09:27:39;18.40;70.80
13093;DHT22;6612;49.568;11.000;2022-10-31T09:30:09;18.50;70.70
13093;DHT22;6612;49.568;11.000;2022-10-31T09:32:36;18.50;70.30
13093;DHT22;6612;49.568;11.000;2022-10-31T09:35:04;18.60;70.20
13093;DHT22;6612;49.568;11.000;2022-10-31T09:37:31;18.60;69.90
13093;DHT22;6612;49.568;11.000;2022-10-31T09:39:58;18.70;69.40
13093;DHT22;6612;49.568;11.000;2022-10-31T09:42:45;18.70;69.20
13093;DHT22;6612;49.568;11.000;2022-10-31T09:45:20;18.70;68.40
13093;DHT22;6612;49.568;11.000;2022-10-31T09:48:00;18.70;68.80
13093;DHT22;6612;49.568;11.000;2022-10-31T09:50:38;18.80;68.80
13093;DHT22;6612;49.568;11.000;2022-10-31T09:53:10;18.80;69.20
13093;DHT22;6612;49.568;11.000;2022-10-31T09:55:42;18.80;69.40
13093;DHT22;6612;49.568;11.000;2022-10-31T09:58:15;18.90;69.60
13093;DHT22;6612;49.568;11.000;2022-10-31T10:00:45;19.00;69.90
13093;DHT22;6612;49.568;11.000;2022-10-31T10:03:29;19.00;70.60
13093;DHT22;6612;49.568;11.000;2022-10-31T10:06:01;19.20;70.80
13093;DHT22;6612;49.568;11.000;2022-10-31T10:08:32;19.40;71.30
13093;DHT22;6612;49.568;11.000;2022-10-31T10:11:13;19.50;71.00
13093;DHT22;6612;49.568;11.000;2022-10-31T10:13:58;19.70;70.20
13093;DHT22;6612;49.568;11.000;2022-10-31T10:16:39;19.80;69.50
13093;DHT22;6612;49.568;11.000;2022-10-31T10:19:25;19.90;69.40
13093;DHT22;6612;49.568;11.000;2022-10-31T10:21:58;20.00;68.50
13093;DHT22;6612;49.568;11.000;2022-10-31T10:24:44;20.10;68.90
13093;DHT22;6612;49.568;11.000;2022-10-31T10:27:19;20.20;68.40
13093;DHT22;6612;49.568;11.000;2022-10-31T10:29:53;20.20;68.20
13093;DHT22;6612;49.568;11.000;2022-10-31T10:32:28;20.20;67.60
13093;DHT22;6612;49.568;11.000;2022-10-31T10:35:02;20.30;67.70
13093;DHT22;6612;49.568;11.000;2022-10-31T10:37:38;20.30;67.10
13093;DHT22;6612;49.568;11.000;2022-10-31T10:40:11;20.30;67.20
13093;DHT22;6612;49.568;11.000;2022-10-31T10:42:38;20.30;67.10
13093;DHT22;6612;49.568;11.000;2022-10-31T10:45:23;20.30;67.50
13093;DHT22;6612;49.568;11.000;2022-10-31T10:48:27;20.30;67.40
13093;DHT22;6612;49.568;11.000;2022-10-31T10:50:57;20.40;67.10
13093;DHT22;6612;49.568;11.000;2022-10-31T10:53:40;20.40;67.00
13093;DHT22;6612;49.568;11.000;2022-10-31T10:56:35;20.30;66.00
13093;DHT22;6612;49.568;11.000;2022-10-31T10:59:03;20.30;66.00
13093;DHT22;6612;49.568;11.000;2022-10-31T11:01:30;20.30;66.30
13093;DHT22;6612;49.568;11.000;2022-10-31T11:04:00;20.20;66.20
13093;DHT22;6612;49.568;11.000;2022-10-31T11:06:28;20.10;66.00
13093;DHT22;6612;49.568;11.000;2022-10-31T11:08:55;20.10;66.20
13093;DHT22;6612;49.568;11.000;2022-10-31T11:11:26;20.00;66.20
13093;DHT22;6612;49.568;11.000;2022-10-31T11:13:59;20.00;66.50
13093;DHT22;6612;49.568;11.000;2022-10-31T11:16:32;19.90;66.90
13093;DHT22;6612;49.568;11.000;2022-10-31T11:19:17;19.90;67.40
13093;DHT22;6612;49.568;11.000;2022-10-31T11:21:46;19.90;67.40
13093;DHT22;6612;49.568;11.000;2022-10-31T11:24:16;19.90;67.90
13093;DHT22;6612;49.568;11.000;2022-10-31T11:26:45;20.00;68.30
13093;DHT22;6612;49.568;11.000;2022-10-31T11:29:21;20.00;68.50
13093;DHT22;6612;49.568;11.000;2022-10-31T11:31:51;20.00;68.60
13093;DHT22;6612;49.568;11.000;2022-10-31T11:34:31;20.10;68.70
13093;DHT22;6612;49.568;11.000;2022-10-31T11:37:03;20.20;68.60
13093;DHT22;6612;49.568;11.000;2022-10-31T11:39:31;20.20;68.90
13093;DHT22;6612;49.568;11.000;2022-10-31T11:42:01;20.30;69.10
13093;DHT22;6612;49.568;11.000;2022-10-31T11:44:30;20.30;68.80
13093;DHT22;6612;49.568;11.000;2022-10-31T11:47:00;20.40;69.20
13093;DHT22;6612;49.568;11.000;2022-10-31T11:49:33;20.50;69.40
13093;DHT22;6612;49.568;11.000;2022-10-31T11:52:04;20.60;69.30
13093;DHT22;6612;49.568;11.000;2022-10-31T11:54:37;20.70;69.50
13093;DHT22;6612;49.568;11.000;2022-10-31T11:57:24;20.70;70.20
13093;DHT22;6612;49.568;11.000;2022-10-31T11:59:53;20.90;68.90
13093;DHT22;6612;49.568;11.000;2022-10-31T12:02:20;20.90;69.30
13093;DHT22;6612;49.568;11.000;2022-10-31T12:04:54;21.00;69.30
13093;DHT22;6612;49.568;11.000;2022-10-31T12:07:22;21.10;69.10
13093;DHT22;6612;49.568;11.000;2022-10-31T12:09:50;21.20;69.10
13093;DHT22;6612;49.568;11.000;2022-10-31T12:12:37;21.20;68.90
13093;DHT22;6612;49.568;11.000;2022-10-31T12:15:32;21.30;68.10
13093;DHT22;6612;49.568;11.000;2022-10-31T12:18:13;21.40;67.70
13093;DHT22;6612;49.568;11.000;2022-10-31T12:20:54;21.50;67.80
13093;DHT22;6612;49.568;11.000;2022-10-31T12:23:28;21.50;67.50
13093;DHT22;6612;49.568;11.000;2022-10-31T12:26:07;21.60;67.70
13093;DHT22;6612;49.568;11.000;2022-10-31T12:29:04;21.60;67.20
13093;DHT22;6612;49.568;11.000;2022-10-31T12:31:41;21.70;66.90
13093;DHT22;6612;49.568;11.000;2022-10-31T12:34:37;21.70;66.80
13093;DHT22;6612;49.568;11.000;2022-10-31T12:37:18;21.70;66.10
13093;DHT22;6612;49.568;11.000;2022-10-31T12:39:54;21.80;66.30
13093;DHT22;6612;49.568;11.000;2022-10-31T12:42:38;21.80;66.40
13093;DHT22;6612;49.568;11.000;2022-10-31T12:45:18;21.80;66.30
13093;DHT22;6612;49.568;11.000;2022-10-31T12:48:00;21.80;66.50
13093;DHT22;6612;49.568;11.000;2022-10-31T12:50:40;21.90;66.40
13093;DHT22;6612;49.568;11.000;2022-10-31T12:53:25;21.90;66.40
13093;DHT22;6612;49.568;11.000;2022-10-31T12:56:07;21.90;66.30
13093;DHT22;6612;49.568;11.000;2022-10-31T12:58:43;22.00;66.30
13093;DHT22;6612;49.568;11.000;2022-10-31T13:01:15;22.00;66.30
13093;DHT22;6612;49.568;11.000;2022-10-31T13:03:48;22.10;66.30
13093;DHT22;6612;49.568;11.000;2022-10-31T13:06:20;22.10;66.10
13093;DHT22;6612;49.568;11.000;2022-10-31T13:08:52;22.10;66.10
13093;DHT22;6612;49.568;11.000;2022-10-31T13:11:23;22.10;65.90
13093;DHT22;6612;49.568;11.000;2022-10-31T13:13:58;22.10;66.10
13093;DHT22;6612;49.568;11.000;2022-10-31T13:16:29;22.10;65.90
13093;DHT22;6612;49.568;11.000;2022-10-31T13:19:00;22.10;65.90
13093;DHT22;6612;49.568;11.000;2022-10-31T13:21:33;22.10;66.00
13093;DHT22;6612;49.568;11.000;2022-10-31T13:24:07;22.10;65.80
13093;DHT22;6612;49.568;11.000;2022-10-31T13:26:41;22.10;65.80
13093;DHT22;6612;49.568;11.000;2022-10-31T13:29:17;22.10;66.00
13093;DHT22;6612;49.568;11.000;2022-10-31T13:31:45;22.10;66.00
13093;DHT22;6612;49.568;11.000;2022-10-31T13:34:21;22.10;66.10
13093;DHT22;6612;49.568;11.000;2022-10-31T13:36:57;22.10;66.00
13093;DHT22;6612;49.568;11.000;2022-10-31T13:39:34;22.10;66.10
13093;DHT22;6612;49.568;11.000;2022-10-31T13:42:08;22.10;66.00
13093;DHT22;6612;49.568;11.000;2022-10-31T13:44:37;22.10;66.30
13093;DHT22;6612;49.568;11.000;2022-10-31T13:47:21;22.00;66.30
13093;DHT22;6612;49.568;11.000;2022-10-31T13:49:49;22.00;66.10
13093;DHT22;6612;49.568;11.000;2022-10-31T13:52:23;22.00;66.30
13093;DHT22;6612;49.568;11.000;2022-10-31T13:54:53;22.00;66.20
13093;DHT22;6612;49.568;11.000;2022-10-31T13:57:29;22.00;66.40
13093;DHT22;6612;49.568;11.000;2022-10-31T13:59:58;21.90;66.40
13093;DHT22;6612;49.568;11.000;2022-10-31T14:02:28;21.90;66.40
13093;DHT22;6612;49.568;11.000;2022-10-31T14:04:58;21.90;66.50
13093;DHT22;6612;49.568;11.000;2022-10-31T14:07:26;21.90;66.50
13093;DHT22;6612;49.568;11.000;2022-10-31T14:09:58;21.80;66.40
13093;DHT22;6612;49.568;11.000;2022-10-31T14:12:30;21.80;66.30
13093;DHT22;6612;49.568;11.000;2022-10-31T14:15:02;21.80;66.30
13093;DHT22;6612;49.568;11.000;2022-10-31T14:17:38;21.80;66.30
13093;DHT22;6612;49.568;11.000;2022-10-31T14:20:33;21.80;66.30
13093;DHT22;6612;49.568;11.000;2022-10-31T14:26:17;21.80;66.10
13093;DHT22;6612;49.568;11.000;2022-10-31T14:28:46;21.70;66.00
13093;DHT22;6612;49.568;11.000;2022-10-31T14:31:32;21.70;66.20
13093;DHT22;6612;49.568;11.000;2022-10-31T14:34:04;21.70;65.90
13093;DHT22;6612;49.568;11.000;2022-10-31T14:36:41;21.60;66.10
13093;DHT22;6612;49.568;11.000;2022-10-31T14:39:15;21.60;66.10
13093;DHT22;6612;49.568;11.000;2022-10-31T14:41:56;21.50;66.00
13093;DHT22;6612;49.568;11.000;2022-10-31T14:44:44;21.50;66.00
13093;DHT22;6612;49.568;11.000;2022-10-31T14:47:21;21.40;65.90
13093;DHT22;6612;49.568;11.000;2022-10-31T14:50:14;21.40;65.90
13093;DHT22;6612;49.568;11.000;2022-10-31T14:52:48;21.30;65.90
13093;DHT22;6612;49.568;11.000;2022-10-31T14:55:16;21.30;65.90
13093;DHT22;6612;49.568;11.000;2022-10-31T14:57:49;21.20;66.00
13093;DHT22;6612;49.568;11.000;2022-10-31T15:00:19;21.20;66.10
13093;DHT22;6612;49.568;11.000;2022-10-31T15:02:57;21.10;66.10
13093;DHT22;6612;49.568;11.000;2022-10-31T15:05:28;21.00;66.20
13093;DHT22;6612;49.568;11.000;2022-10-31T15:07:57;21.00;66.20
13093;DHT22;6612;49.568;11.000;2022-10-31T15:10:26;21.00;66.30
13093;DHT22;6612;49.568;11.000;2022-10-31T15:13:08;20.90;66.30
13093;DHT22;6612;49.568;11.000;2022-10-31T15:15:36;20.90;66.40
13093;DHT22;6612;49.568;11.000;2022-10-31T15:18:04;20.80;66.30
13093;DHT22;6612;49.568;11.000;2022-10-31T15:20:38;20.80;66.40
13093;DHT22;6612;49.568;11.000;2022-10-31T15:23:10;20.70;66.50
13093;DHT22;6612;49.568;11.000;2022-10-31T15:25:37;20.60;66.40
13093;DHT22;6612;49.568;11.000;2022-10-31T15:28:14;20.60;66.50
13093;DHT22;6612;49.568;11.000;2022-10-31T15:30:50;20.60;66.70
13093;DHT22;6612;49.568;11.000;2022-10-31T15:33:23;20.50;66.80
13093;DHT22;6612;49.568;11.000;2022-10-31T15:35:58;20.50;66.80
13093;DHT22;6612;49.568;11.000;2022-10-31T15:38:27;20.40;66.90
13093;DHT22;6612;49.568;11.000;2022-10-31T15:40:58;20.40;66.90
13093;DHT22;6612;49.568;11.000;2022-10-31T15:43:29;20.30;67.00
13093;DHT22;6612;49.568;11.000;2022-10-31T15:46:00;20.30;67.00
13093;DHT22;6612;49.568;11.000;2022-10-31T15:48:28;20.20;66.90
13093;DHT22;6612;49.568;11.000;2022-10-31T15:50:57;20.20;66.90
13093;DHT22;6612;49.568;11.000;2022-10-31T15:53:27;20.10;66.80
13093;DHT22;6612;49.568;11.000;2022-10-31T15:55:56;20.00;66.70
13093;DHT22;6612;49.568;11.000;2022-10-31T15:58:24;20.00;66.80
13093;DHT22;6612;49.568;11.000;2022-10-31T16:01:01;19.90;66.80
13093;DHT22;6612;49.568;11.000;2022-10-31T16:03:30;19.90;67.10